Time;durP1;ratioP1;P1;durP2;ratioP2;P2;SDS_P1;SDS_P2;PMS_P1;PMS_P2;Temp;Humidity;BMP_temperature;BMP_pressure;BME280_temperature;BME280_humidity;BME280_pressure;Samples;Min_cycle;Max_cycle;Signal;HPM_P1;HPM_P2
2023/04/28 00:01:11;;;;;;;8.60;5.18;;;;;;;8.86;54.59;101441.94;6098953;23;20032;-77
2023/04/28 00:03:38;;;;;;;12.63;5.43;;;;;;;8.84;54.86;101448.81;6099020;23;20015;-77
2023/04/28 00:06:04;;;;;;;7.13;5.15;;;;;;;8.83;54.70;101450.72;6098808;23;20464;-77
2023/04/28 00:08:31;;;;;;;8.65;5.53;;;;;;;8.81;54.77;101453.03;6073663;23;20019;-77
2023/04/28 00:10:59;;;;;;;8.32;5.43;;;;;;;8.81;54.72;101449.63;6098839;23;20018;-77
2023/04/28 00:13:26;;;;;;;5.82;5.25;;;;;;;8.80;55.15;101440.91;6099323;23;20852;-78
2023/04/28 00:15:53;;;;;;;9.75;5.28;;;;;;;8.77;55.16;101430.41;6073577;23;20465;-77
2023/04/28 00:18:20;;;;;;;7.35;5.55;;;;;;;8.73;55.47;101430.47;6098188;23;20054;-78
2023/04/28 00:20:47;;;;;;;8.98;5.60;;;;;;;8.72;55.49;101426.31;6099456;23;20472;-78
2023/04/28 00:23:14;;;;;;;5.80;5.13;;;;;;;8.69;55.32;101411.94;6098451;23;20019;-78
2023/04/28 00:25:41;;;;;;;5.50;5.05;;;;;;;8.68;55.49;101407.03;6049427;23;20033;-77
2023/04/28 00:28:07;;;;;;;6.57;5.18;;;;;;;8.67;55.47;101395.69;6098611;23;20305;-78
2023/04/28 00:30:34;;;;;;;6.10;4.72;;;;;;;8.68;55.50;101396.44;6073562;23;20103;-79
2023/04/28 00:33:00;;;;;;;8.45;4.90;;;;;;;8.65;55.18;101395.34;6097948;23;20019;-79
2023/04/28 00:35:27;;;;;;;9.05;4.93;;;;;;;8.64;55.29;101385.88;6099050;23;20111;-79
2023/04/28 00:37:54;;;;;;;6.30;4.88;;;;;;;8.64;55.37;101385.88;6099374;23;20071;-79
2023/04/28 00:40:31;;;;;;;6.95;5.30;;;;;;;8.64;55.28;101380.56;6098926;23;20474;-79
2023/04/28 00:42:58;;;;;;;5.45;4.95;;;;;;;8.64;55.63;101388.53;6073168;23;20062;-78
2023/04/28 00:45:27;;;;;;;5.80;5.30;;;;;;;8.66;55.84;101393.44;6098849;23;20026;-77
2023/04/28 00:47:55;;;;;;;6.20;4.32;;;;;;;8.64;55.22;101393.09;6099048;23;20425;-77
2023/04/28 00:50:23;;;;;;;5.80;4.78;;;;;;;8.63;55.42;101384.38;6098760;23;20026;-79
2023/04/28 00:52:51;;;;;;;5.63;4.68;;;;;;;8.63;55.17;101375.69;6099361;23;20015;-78
2023/04/28 00:55:18;;;;;;;7.43;5.18;;;;;;;8.62;55.46;101377.59;6099713;23;20019;-78
2023/04/28 00:57:45;;;;;;;6.30;4.72;;;;;;;8.60;55.89;101379.16;6074182;23;20453;-78
2023/04/28 01:00:14;;;;;;;5.70;4.75;;;;;;;8.60;56.17;101376.50;6098812;23;20019;-78
2023/04/28 01:02:40;;;;;;;6.13;4.95;;;;;;;8.61;56.04;101370.03;6100498;23;20019;-78
2023/04/28 01:05:09;;;;;;;6.47;5.10;;;;;;;8.59;56.45;101359.81;6099782;23;20701;-78
2023/04/28 01:07:36;;;;;;;12.13;6.00;;;;;;;8.60;55.97;101363.22;6074177;23;20027;-77
2023/04/28 01:10:05;;;;;;;6.20;4.53;;;;;;;8.57;55.72;101356.81;6073829;23;20023;-78
2023/04/28 01:12:33;;;;;;;6.40;5.00;;;;;;;8.55;55.64;101361.03;6074456;23;20094;-77
2023/04/28 01:15:00;;;;;;;6.80;4.70;;;;;;;8.55;56.31;101353.84;6099357;23;20019;-78
2023/04/28 01:17:27;;;;;;;9.95;4.95;;;;;;;8.55;56.31;101353.09;6100504;23;20022;-78
2023/04/28 01:19:54;;;;;;;5.25;4.68;;;;;;;8.53;56.78;101361.47;6100586;23;20019;-77
2023/04/28 01:22:21;;;;;;;7.47;5.18;;;;;;;8.52;56.75;101359.22;6099936;23;20091;-78
2023/04/28 01:24:47;;;;;;;5.68;4.57;;;;;;;8.53;56.71;101358.06;6100541;23;20030;-77
2023/04/28 01:27:14;;;;;;;8.43;5.30;;;;;;;8.51;56.95;101349.75;6050163;23;20103;-78
2023/04/28 01:29:40;;;;;;;7.05;5.10;;;;;;;8.49;56.24;101341.44;6073851;23;20019;-78
2023/04/28 01:32:07;;;;;;;5.75;4.93;;;;;;;8.51;56.70;101347.09;6073641;23;20078;-78
2023/04/28 01:34:34;;;;;;;6.28;4.78;;;;;;;8.52;56.21;101345.94;6074397;23;20023;-77
2023/04/28 01:37:03;;;;;;;9.20;4.68;;;;;;;8.51;56.42;101341.78;6099263;23;20050;-77
2023/04/28 01:39:30;;;;;;;9.30;4.63;;;;;;;8.49;56.47;101338.78;6074442;23;20015;-77
2023/04/28 01:41:57;;;;;;;9.75;4.90;;;;;;;8.46;56.39;101335.06;6100196;23;20019;-78
2023/04/28 01:44:24;;;;;;;6.22;5.00;;;;;;;8.46;56.52;101329.00;6074028;23;20108;-77
2023/04/28 01:46:50;;;;;;;5.80;4.32;;;;;;;8.45;56.56;101324.84;6074656;23;20019;-78
2023/04/28 01:49:20;;;;;;;5.28;4.78;;;;;;;8.45;56.39;101319.53;6073383;23;20030;-78
2023/04/28 01:51:46;;;;;;;4.93;4.55;;;;;;;8.45;56.71;101311.59;6074551;23;20019;-77
2023/04/28 01:54:13;;;;;;;6.88;5.03;;;;;;;8.44;56.61;101307.44;6073909;23;20029;-77
2023/04/28 01:56:41;;;;;;;5.40;4.90;;;;;;;8.43;56.81;101308.59;6074371;23;20047;-77
2023/04/28 01:59:08;;;;;;;7.75;5.05;;;;;;;8.39;56.79;101315.91;6068235;23;20026;-78
2023/04/28 02:01:35;;;;;;;6.72;4.80;;;;;;;8.37;56.78;101307.59;6069724;23;20075;-77
2023/04/28 02:04:01;;;;;;;8.38;4.68;;;;;;;8.38;57.17;101304.53;6044730;23;20421;-77
2023/04/28 02:06:31;;;;;;;6.03;4.50;;;;;;;8.38;57.02;101301.16;6069294;23;20098;-77
2023/04/28 02:08:58;;;;;;;4.90;4.30;;;;;;;8.37;56.69;101299.66;6068885;23;20182;-77
2023/04/28 02:11:25;;;;;;;4.80;4.20;;;;;;;8.37;56.99;101299.66;6069743;23;20075;-77
2023/04/28 02:13:55;;;;;;;11.27;4.28;;;;;;;8.37;56.93;101297.00;6069212;23;20476;-77
2023/04/28 02:16:21;;;;;;;5.22;4.65;;;;;;;8.37;56.78;101299.66;6069218;23;20043;-77
2023/04/28 02:18:49;;;;;;;5.65;4.38;;;;;;;8.37;56.45;101297.00;6069588;23;20090;-77
2023/04/28 02:21:16;;;;;;;5.40;4.90;;;;;;;8.37;57.23;101291.69;6092970;23;20019;-77
2023/04/28 02:23:43;;;;;;;7.70;4.72;;;;;;;8.35;57.14;101284.88;6071619;23;20019;-77
2023/04/28 02:26:10;;;;;;;6.50;4.75;;;;;;;8.35;57.23;101284.88;6070872;23;20361;-77
2023/04/28 02:28:36;;;;;;;6.75;4.82;;;;;;;8.33;57.30;101279.25;6070938;23;20429;-77
2023/04/28 02:31:06;;;;;;;8.23;4.80;;;;;;;8.34;57.11;101274.69;6068801;23;20029;-78
2023/04/28 02:33:33;;;;;;;4.90;4.40;;;;;;;8.33;57.33;101278.50;6071368;23;20024;-77
2023/04/28 02:36:02;;;;;;;9.05;5.07;;;;;;;8.32;57.46;101266.34;6068620;23;20019;-78
2023/04/28 02:38:28;;;;;;;5.78;5.18;;;;;;;8.32;57.54;101269.00;6069622;23;20036;-78
2023/04/28 02:41:04;;;;;;;6.72;4.75;;;;;;;8.30;57.51;101266.03;6071184;23;20098;-77
2023/04/28 02:43:31;;;;;;;5.07;4.50;;;;;;;8.29;57.55;101259.97;6070814;23;20047;-77
2023/04/28 02:45:58;;;;;;;6.82;4.70;;;;;;;8.31;57.80;101264.88;6070326;23;20063;-78
2023/04/28 02:48:25;;;;;;;6.32;4.75;;;;;;;8.30;57.87;101258.81;6071085;23;20019;-78
2023/04/28 02:50:52;;;;;;;6.57;4.40;;;;;;;8.29;57.87;101252.00;6069203;23;20058;-77
2023/04/28 02:53:20;;;;;;;4.93;4.43;;;;;;;8.29;57.95;101246.69;6068355;23;20087;-77
2023/04/28 02:55:47;;;;;;;12.65;4.38;;;;;;;8.28;57.99;101239.91;6068984;23;20019;-77
2023/04/28 02:58:14;;;;;;;5.65;4.22;;;;;;;8.28;57.96;101237.25;6044676;23;20102;-77
2023/04/28 03:00:41;;;;;;;5.35;4.68;;;;;;;8.27;58.09;101221.75;6069035;23;20058;-77
2023/04/28 03:03:08;;;;;;;6.07;4.32;;;;;;;8.25;58.08;101227.47;6068371;23;20024;-77
2023/04/28 03:05:35;;;;;;;4.95;4.45;;;;;;;8.23;58.20;101221.81;6069233;23;20020;-77
2023/04/28 03:08:01;;;;;;;5.68;4.45;;;;;;;8.23;58.12;101224.47;6068389;23;20031;-77
2023/04/28 03:10:28;;;;;;;5.07;4.57;;;;;;;8.23;58.56;101218.41;6070345;23;20452;-77
2023/04/28 03:12:54;;;;;;;6.97;4.93;;;;;;;8.24;58.55;101211.97;6069269;23;20108;-77
2023/04/28 03:15:21;;;;;;;7.25;5.05;;;;;;;8.23;58.65;101215.75;6070439;23;20051;-77
2023/04/28 03:17:48;;;;;;;5.47;4.85;;;;;;;8.22;58.85;101212.38;6070831;23;20022;-78
2023/04/28 03:20:15;;;;;;;5.13;4.63;;;;;;;8.22;58.67;101203.66;6068426;23;20075;-77
2023/04/28 03:22:41;;;;;;;5.10;4.53;;;;;;;8.24;58.89;101206.66;6069140;23;20024;-78
2023/04/28 03:25:08;;;;;;;4.88;4.47;;;;;;;8.23;58.98;101203.25;6067816;23;20024;-77
2023/04/28 03:27:43;;;;;;;8.32;4.88;;;;;;;8.25;59.02;101208.91;6068948;23;20030;-77
2023/04/28 03:30:10;;;;;;;5.57;4.30;;;;;;;8.25;58.97;101200.19;6068332;23;20051;-78
2023/04/28 03:32:37;;;;;;;6.05;4.63;;;;;;;8.23;58.80;101195.28;6069002;23;20030;-78
2023/04/28 03:35:06;;;;;;;8.88;4.88;;;;;;;8.22;59.15;101190.41;6068036;23;20023;-77
2023/04/28 03:37:33;;;;;;;7.07;4.80;;;;;;;8.19;59.09;101185.91;6070814;23;20098;-78
2023/04/28 03:39:59;;;;;;;7.72;4.90;;;;;;;8.18;59.36;101182.50;6067301;23;20023;-78
2023/04/28 03:42:28;;;;;;;5.07;4.10;;;;;;;8.18;60.03;101179.88;6068950;23;20083;-78
2023/04/28 03:45:06;;;;;;;6.05;4.75;;;;;;;8.19;59.57;101176.06;6068438;23;20402;-78
2023/04/28 03:47:33;;;;;;;6.85;4.15;;;;;;;8.20;59.62;101187.41;6069037;23;20024;-78
2023/04/28 03:49:59;;;;;;;5.07;4.15;;;;;;;8.20;59.64;101184.75;6067844;23;20024;-78
2023/04/28 03:52:26;;;;;;;4.80;4.18;;;;;;;8.18;59.96;101171.91;6070758;23;20459;-78
2023/04/28 03:54:53;;;;;;;6.40;4.78;;;;;;;8.18;59.92;101179.13;6068151;23;20069;-78
2023/04/28 03:57:20;;;;;;;7.80;4.82;;;;;;;8.17;60.37;101185.59;6068465;23;20094;-78
2023/04/28 03:59:46;;;;;;;5.28;4.78;;;;;;;8.15;60.39;101178.03;6083930;23;20442;-78
2023/04/28 04:02:15;;;;;;;4.95;4.55;;;;;;;8.15;60.86;101164.78;6072881;23;20062;-78
2023/04/28 04:04:42;;;;;;;8.63;4.60;;;;;;;8.15;60.83;101166.69;6073575;23;20023;-78
2023/04/28 04:07:09;;;;;;;5.55;4.80;;;;;;;8.14;60.92;101154.56;6073257;23;20079;-78
2023/04/28 04:09:36;;;;;;;5.63;5.00;;;;;;;8.12;61.15;101155.00;6072775;23;20061;-78
2023/04/28 04:12:03;;;;;;;5.10;4.60;;;;;;;8.15;61.24;101150.78;6072650;23;20403;-78
2023/04/28 04:14:31;;;;;;;7.07;5.25;;;;;;;8.15;61.49;101148.88;6073760;23;20039;-78
2023/04/28 04:16:58;;;;;;;5.32;4.78;;;;;;;8.15;61.50;101146.22;6072673;23;20029;-78
2023/04/28 04:19:25;;;;;;;6.22;4.70;;;;;;;8.17;61.40;101146.53;6073453;23;20023;-78
2023/04/28 04:21:53;;;;;;;5.20;4.75;;;;;;;8.16;62.04;101142.41;6073408;23;20352;-78
2023/04/28 04:24:19;;;;;;;5.43;4.93;;;;;;;8.13;61.88;101137.91;6072098;23;20023;-78
2023/04/28 04:26:46;;;;;;;8.48;4.93;;;;;;;8.16;61.76;101131.03;6073039;23;20445;-78
2023/04/28 04:29:35;;;;;;;7.75;4.57;;;;;;;8.16;62.11;101137.09;6074193;23;20019;-78
2023/04/28 04:32:07;;;;;;;8.13;5.50;;;;;;;8.17;62.31;101140.50;6073408;23;20055;-78
2023/04/28 04:34:34;;;;;;;5.85;5.00;;;;;;;8.16;62.09;101142.41;6074436;23;20023;-78
2023/04/28 04:37:00;;;;;;;8.25;5.25;;;;;;;8.17;62.27;101135.19;6049834;23;20053;-78
2023/04/28 04:39:27;;;;;;;6.28;4.82;;;;;;;8.16;62.46;101123.84;6074054;23;20027;-78
2023/04/28 04:41:54;;;;;;;5.20;4.80;;;;;;;8.18;62.56;101115.47;6075053;23;20062;-78
2023/04/28 04:44:44;;;;;;;5.97;5.10;;;;;;;8.20;62.53;101121.09;6074745;23;20026;-78
2023/04/28 04:47:22;;;;;;;5.68;5.03;;;;;;;8.23;62.51;101120.28;6074592;23;20023;-78
2023/04/28 04:49:50;;;;;;;5.80;4.90;;;;;;;8.22;62.40;101122.19;6074567;23;20042;-77
2023/04/28 04:52:17;;;;;;;7.32;5.50;;;;;;;8.25;62.42;101126.66;6049413;23;20058;-77
2023/04/28 04:54:45;;;;;;;7.93;5.13;;;;;;;8.26;62.86;101119.47;6074257;23;20026;-77
2023/04/28 04:57:13;;;;;;;11.18;5.25;;;;;;;8.27;62.89;101113.00;6073821;23;20110;-77
2023/04/28 05:00:04;;;;;;;6.22;5.63;;;;;;;8.30;63.12;101109.53;6054141;23;20505;-79
2023/04/28 05:02:30;;;;;;;6.20;4.97;;;;;;;8.29;63.28;101108.78;6074379;23;20110;-77
2023/04/28 05:04:58;;;;;;;8.50;5.72;;;;;;;8.29;63.10;101102.72;6073677;23;20465;-77
2023/04/28 05:07:47;;;;;;;7.85;5.60;;;;;;;8.30;63.55;101104.97;6054376;23;20098;-77
2023/04/28 05:10:15;;;;;;;8.23;5.00;;;;;;;8.32;63.40;101097.38;6073832;23;20750;-78
2023/04/28 05:12:43;;;;;;;11.52;6.32;;;;;;;8.34;63.17;101099.59;6074232;23;20082;-77
2023/04/28 05:15:13;;;;;;;6.15;5.40;;;;;;;8.36;63.47;101107.91;6050949;23;20019;-77
2023/04/28 05:17:46;;;;;;;6.47;5.55;;;;;;;8.38;63.65;101099.53;6074304;23;20019;-78
2023/04/28 05:20:13;;;;;;;5.80;5.30;;;;;;;8.41;63.70;101096.75;6073441;23;20111;-78
2023/04/28 05:22:40;;;;;;;6.07;5.45;;;;;;;8.44;63.54;101103.88;6073724;23;20433;-78
2023/04/28 05:25:08;;;;;;;6.30;5.70;;;;;;;8.44;63.68;101106.53;6099895;23;20035;-78
2023/04/28 05:27:38;;;;;;;17.25;5.88;;;;;;;8.47;64.07;101102.31;6074570;23;20015;-78
2023/04/28 05:30:09;;;;;;;9.35;6.47;;;;;;;8.50;64.21;101098.84;6099394;23;20175;-78
2023/04/28 05:32:36;;;;;;;;;;;;;;;8.52;63.32;101102.56;6074928;23;20029;-78
2023/04/28 05:35:03;;;;;;;9.40;5.78;;;;;;;8.52;64.95;101099.91;6073716;23;19995;-78
2023/04/28 05:37:30;;;;;;;13.68;5.85;;;;;;;8.54;65.71;101110.09;6099942;23;20023;-78
2023/04/28 05:39:56;;;;;;;8.02;6.60;;;;;;;8.54;67.03;101118.81;6074120;23;20412;-78
2023/04/28 05:42:24;;;;;;;7.13;6.07;;;;;;;8.57;68.27;101117.25;6074376;23;20109;-78
2023/04/28 05:44:50;;;;;;;8.40;6.75;;;;;;;8.56;70.24;101108.53;6074213;23;20102;-79
2023/04/28 05:47:17;;;;;;;7.80;7.10;;;;;;;8.56;71.49;101108.53;6073674;23;20083;-80
2023/04/28 05:49:43;;;;;;;10.23;6.85;;;;;;;8.57;71.09;101104.72;6074225;23;20026;-79
2023/04/28 05:52:10;;;;;;;9.90;7.20;;;;;;;8.56;70.81;101105.13;6072892;23;20054;-79
2023/04/28 05:54:36;;;;;;;8.02;7.32;;;;;;;8.53;70.96;101101.41;6074316;23;20023;-79
2023/04/28 05:57:03;;;;;;;7.63;6.70;;;;;;;8.51;71.70;101109.03;6073814;23;20046;-79
2023/04/28 05:59:30;;;;;;;8.48;7.07;;;;;;;8.52;72.57;101101.81;6099998;23;20497;-79
2023/04/28 06:01:57;;;;;;;9.52;6.85;;;;;;;8.56;74.40;101115.75;6074015;23;20022;-78
2023/04/28 06:04:25;;;;;;;8.77;7.18;;;;;;;8.56;75.25;101115.75;6050130;23;20330;-78
2023/04/28 06:06:52;;;;;;;8.80;7.55;;;;;;;8.56;75.32;101121.81;6074121;23;20090;-78
2023/04/28 06:09:19;;;;;;;9.80;7.82;;;;;;;8.57;73.79;101118.00;6073292;23;20082;-78
2023/04/28 06:11:46;;;;;;;11.18;7.43;;;;;;;8.58;75.41;101116.09;6073949;23;20027;-78
2023/04/28 06:14:12;;;;;;;8.95;7.05;;;;;;;8.58;74.75;101103.56;6073958;23;20011;-78
2023/04/28 06:16:40;;;;;;;13.27;7.72;;;;;;;8.60;75.73;101095.94;6097754;23;20027;-78
2023/04/28 06:19:07;;;;;;;8.07;7.20;;;;;;;8.61;75.88;101088.72;6072880;23;20026;-78
2023/04/28 06:21:34;;;;;;;10.88;8.10;;;;;;;8.63;77.17;101089.03;6074114;23;20026;-78
2023/04/28 06:24:01;;;;;;;10.75;8.15;;;;;;;8.65;77.21;101074.19;6073287;23;20089;-78
2023/04/28 06:26:29;;;;;;;9.65;7.65;;;;;;;8.72;76.72;101075.94;6073830;23;20019;-78
2023/04/28 06:28:56;;;;;;;11.38;7.72;;;;;;;8.76;77.02;101078.50;6099752;23;20019;-80
2023/04/28 06:31:22;;;;;;;9.98;7.50;;;;;;;8.80;77.15;101079.13;6074814;23;20026;-80
2023/04/28 06:33:52;;;;;;;10.82;8.05;;;;;;;8.86;78.25;101080.13;6074102;23;20019;-78
2023/04/28 06:36:18;;;;;;;9.52;8.32;;;;;;;8.92;78.61;101076.53;6074552;23;20113;-80
2023/04/28 06:38:45;;;;;;;12.15;7.65;;;;;;;8.96;78.21;101079.84;6100796;23;20048;-78
2023/04/28 06:41:11;;;;;;;14.02;8.35;;;;;;;8.97;78.02;101081.34;6074428;23;20514;-78
2023/04/28 06:43:40;;;;;;;10.82;8.27;;;;;;;8.98;78.90;101069.53;6074786;23;20029;-79
2023/04/28 06:46:11;;;;;;;11.75;8.85;;;;;;;9.06;79.82;101074.69;6051479;23;20472;-79
2023/04/28 06:48:37;;;;;;;10.95;8.95;;;;;;;9.13;80.45;101074.50;6074288;23;20335;-80
2023/04/28 06:51:04;;;;;;;10.00;8.95;;;;;;;9.19;81.20;101076.22;6073959;23;20480;-82
2023/04/28 06:53:33;;;;;;;15.55;9.60;;;;;;;9.26;82.18;101081.31;6051517;23;20037;-79
2023/04/28 06:56:01;;;;;;;12.02;9.35;;;;;;;9.28;82.13;101067.59;6100567;23;20345;-79
2023/04/28 06:58:27;;;;;;;18.25;9.65;;;;;;;9.31;82.69;101074.72;6051270;23;20120;-80
2023/04/28 07:00:54;;;;;;;14.63;9.30;;;;;;;9.36;83.09;101074.22;6069878;23;20083;-81
2023/04/28 07:03:20;;;;;;;18.42;9.23;;;;;;;9.39;83.26;101070.72;6071248;23;20054;-79
2023/04/28 07:05:47;;;;;;;15.45;9.93;;;;;;;9.39;83.67;101054.78;6071813;23;20015;-81
2023/04/28 07:08:14;;;;;;;12.02;10.20;;;;;;;9.47;83.39;101039.38;6071428;23;20100;-78
2023/04/28 07:10:41;;;;;;;13.20;10.23;;;;;;;9.53;84.40;101050.97;6070033;23;20047;-81
2023/04/28 07:13:07;;;;;;;19.77;11.77;;;;;;;9.59;85.04;101054.59;6071757;23;20026;-79
2023/04/28 07:15:34;;;;;;;15.32;10.63;;;;;;;9.64;85.78;101046.81;6071984;23;20026;-79
2023/04/28 07:18:01;;;;;;;11.50;10.30;;;;;;;9.69;86.15;101058.81;6070864;23;20020;-80
2023/04/28 07:20:27;;;;;;;19.00;11.55;;;;;;;9.83;86.85;101055.00;6071889;23;20055;-78
2023/04/28 07:22:54;;;;;;;14.18;11.45;;;;;;;9.95;86.93;101060.34;6071772;23;20075;-77
2023/04/28 07:25:20;;;;;;;14.38;10.93;;;;;;;10.04;86.71;101057.75;6071632;23;20054;-81
2023/04/28 07:27:47;;;;;;;15.20;11.65;;;;;;;10.12;86.74;101068.16;6071933;23;20026;-80
2023/04/28 07:30:14;;;;;;;15.50;11.25;;;;;;;10.18;86.46;101061.16;6071281;23;20067;-79
2023/04/28 07:32:53;;;;;;;13.43;10.88;;;;;;;10.25;87.29;101067.03;6071160;23;20019;-79
2023/04/28 07:35:19;;;;;;;15.68;11.73;;;;;;;10.37;87.14;101062.84;6071277;23;20433;-79
2023/04/28 07:37:46;;;;;;;16.65;12.07;;;;;;;10.43;86.99;101066.44;6071406;23;20019;-80
2023/04/28 07:40:12;;;;;;;13.90;11.57;;;;;;;10.53;87.04;101067.25;6071026;23;20028;-80
2023/04/28 07:42:39;;;;;;;14.63;11.43;;;;;;;10.62;86.75;101064.69;6071371;23;20023;-81
2023/04/28 07:45:06;;;;;;;17.10;11.80;;;;;;;10.72;86.90;101065.50;6070880;23;20075;-80
2023/04/28 07:47:33;;;;;;;24.10;12.23;;;;;;;10.81;86.00;101058.31;6070612;23;20015;-80
2023/04/28 07:50:03;;;;;;;14.45;11.88;;;;;;;10.91;86.39;101053.81;6070810;23;20030;-80
2023/04/28 07:52:31;;;;;;;15.50;11.48;;;;;;;10.99;84.67;101052.38;6071653;23;20086;-80
2023/04/28 07:54:58;;;;;;;15.05;11.15;;;;;;;11.07;85.50;101050.97;6069440;23;20083;-80
2023/04/28 07:57:25;;;;;;;14.77;11.85;;;;;;;11.14;85.23;101044.63;6071747;23;20015;-80
2023/04/28 07:59:51;;;;;;;17.30;12.13;;;;;;;11.17;85.27;101041.84;6085732;23;20019;-80
2023/04/28 08:02:19;;;;;;;16.48;12.63;;;;;;;11.26;84.52;101049.88;6100067;23;20022;-79
2023/04/28 08:04:46;;;;;;;15.45;11.93;;;;;;;11.31;85.39;101049.31;6101801;23;20496;-80
2023/04/28 08:07:13;;;;;;;15.63;12.45;;;;;;;11.39;85.29;101041.81;6101377;23;20104;-80
2023/04/28 08:09:41;;;;;;;15.50;12.98;;;;;;;11.38;85.17;101050.97;6101706;23;20023;-80
2023/04/28 08:12:08;;;;;;;14.63;11.85;;;;;;;11.36;85.71;101042.66;6101333;23;20019;-80
2023/04/28 08:14:34;;;;;;;15.50;12.85;;;;;;;11.38;85.46;101034.97;6101940;23;20018;-80
2023/04/28 08:17:01;;;;;;;16.23;12.75;;;;;;;11.40;85.81;101037.97;6100721;23;20481;-80
2023/04/28 08:19:27;;;;;;;15.20;12.07;;;;;;;11.44;86.48;101043.16;6101667;23;20019;-80
2023/04/28 08:21:54;;;;;;;20.13;12.80;;;;;;;11.44;86.30;101048.50;6101922;23;20075;-80
2023/04/28 08:24:20;;;;;;;19.58;13.60;;;;;;;11.37;86.85;101052.16;6101367;23;20050;-80
2023/04/28 08:26:51;;;;;;;15.02;12.85;;;;;;;11.36;87.60;101056.75;6100734;23;20101;-80
2023/04/28 08:29:17;;;;;;;15.80;12.55;;;;;;;11.30;88.13;101045.16;6101067;23;20046;-79
2023/04/28 08:31:44;;;;;;;15.68;12.05;;;;;;;11.34;88.79;101050.34;6075485;23;20018;-80
2023/04/28 08:34:11;;;;;;;16.67;12.95;;;;;;;11.35;88.71;101051.84;6101025;23;20078;-80
2023/04/28 08:36:40;;;;;;;16.58;13.27;;;;;;;11.36;89.12;101050.66;6075529;23;20078;-80
2023/04/28 08:39:07;;;;;;;15.73;13.15;;;;;;;11.35;89.67;101041.94;6075686;23;20027;-81
2023/04/28 08:41:37;;;;;;;14.35;12.82;;;;;;;11.48;90.85;101038.44;6101666;23;20356;-80
2023/04/28 08:44:07;;;;;;;15.25;13.10;;;;;;;11.74;90.75;101039.72;6100466;23;20541;-79
2023/04/28 08:46:38;;;;;;;14.50;13.05;;;;;;;11.85;89.84;101042.00;6101543;23;20074;-80
2023/04/28 08:49:07;;;;;;;15.45;13.63;;;;;;;11.99;90.30;101038.78;6101346;23;20079;-79
2023/04/28 08:51:42;;;;;;;20.90;13.63;;;;;;;12.14;91.67;101045.03;6101325;23;20023;-78
2023/04/28 08:54:13;;;;;;;16.67;13.60;;;;;;;12.18;90.17;101039.56;6101169;23;20119;-80
2023/04/28 08:56:52;;;;;;;21.25;14.15;;;;;;;12.22;90.67;101038.22;6078667;23;20023;-78
2023/04/28 08:59:19;;;;;;;15.63;14.02;;;;;;;12.26;90.44;101040.75;6100414;23;20019;-79
2023/04/28 09:01:48;;;;;;;18.02;14.52;;;;;;;12.22;90.28;101040.16;6101229;23;20015;-80
2023/04/28 09:04:16;;;;;;;17.85;14.13;;;;;;;12.14;91.63;101042.38;6101410;23;20381;-81
2023/04/28 09:06:47;;;;;;;17.15;14.27;;;;;;;12.21;91.72;101044.00;6101173;23;20021;-79
2023/04/28 09:09:24;;;;;;;17.00;14.15;;;;;;;12.23;91.72;101038.97;6100791;23;20023;-80
2023/04/28 09:11:58;;;;;;;166.80;108.80;;;;;;;12.22;92.27;101034.81;6101350;23;20441;-80
2023/04/28 09:14:26;;;;;;;23.23;16.80;;;;;;;12.19;92.24;101033.03;6100361;23;20051;-79
2023/04/28 09:16:53;;;;;;;20.23;15.32;;;;;;;12.14;92.08;101026.34;6101190;23;20453;-80
2023/04/28 09:19:20;;;;;;;20.40;15.18;;;;;;;12.07;92.94;101031.97;6075321;23;20019;-80
2023/04/28 09:21:53;;;;;;;20.20;15.55;;;;;;;12.06;93.00;101027.06;6101348;23;20014;-79
2023/04/28 09:24:39;;;;;;;19.13;15.10;;;;;;;12.05;93.09;101023.66;6101043;23;20015;-79
2023/04/28 09:27:14;;;;;;;20.30;15.35;;;;;;;12.07;93.72;101023.97;6101181;23;20086;-80
2023/04/28 09:29:51;;;;;;;20.77;15.02;;;;;;;12.04;94.04;101027.50;6100834;23;20019;-79
2023/04/28 09:32:20;;;;;;;20.25;15.32;;;;;;;12.06;94.45;101025.16;6101111;23;20049;-79
2023/04/28 09:34:49;;;;;;;23.25;15.32;;;;;;;12.10;95.32;101027.69;6101481;23;20014;-80
2023/04/28 09:37:20;;;;;;;17.38;15.02;;;;;;;12.15;94.13;101030.50;6100963;23;20014;-79
2023/04/28 09:39:49;;;;;;;17.58;15.32;;;;;;;12.13;94.72;101032.13;6101315;23;20034;-80
2023/04/28 09:42:43;;;;;;;17.13;15.13;;;;;;;12.20;95.36;101029.94;6100243;23;21011;-79
2023/04/28 09:45:15;;;;;;;21.52;15.13;;;;;;;12.28;96.57;101028.47;6101186;23;20066;-79
2023/04/28 09:47:45;;;;;;;17.42;14.48;;;;;;;12.30;96.04;101023.41;6101329;23;20488;-80
2023/04/28 09:50:13;;;;;;;16.23;14.55;;;;;;;12.33;97.06;101025.19;6100754;23;20468;-84
2023/04/28 09:52:44;;;;;;;15.55;13.93;;;;;;;12.37;96.63;101021.66;6100881;23;20019;-80
2023/04/28 09:55:12;;;;;;;16.05;14.35;;;;;;;12.47;98.68;101021.19;6075348;23;20431;-81
2023/04/28 09:57:38;;;;;;;18.58;14.07;;;;;;;12.50;97.72;101022.97;6100834;23;20021;-82
2023/04/28 10:00:08;;;;;;;15.52;13.68;;;;;;;12.48;97.18;101020.00;6100319;23;20208;-81
2023/04/28 10:02:39;;;;;;;14.87;13.40;;;;;;;12.43;97.86;101017.91;6075512;23;20022;-81
2023/04/28 10:05:09;;;;;;;15.68;13.38;;;;;;;12.41;97.44;101020.28;6101122;23;20473;-81
2023/04/28 10:07:38;;;;;;;15.52;13.27;;;;;;;12.45;98.68;101020.13;6101321;23;20429;-81
2023/04/28 10:10:07;;;;;;;17.08;14.57;;;;;;;12.51;99.41;101013.03;6100489;23;20029;-81
2023/04/28 10:12:36;;;;;;;16.27;14.27;;;;;;;12.54;100.00;101012.13;6100344;23;20019;-81
2023/04/28 10:15:05;;;;;;;14.40;13.07;;;;;;;12.54;100.00;101007.53;6101090;23;20070;-80
2023/04/28 10:17:33;;;;;;;15.07;12.52;;;;;;;12.62;100.00;101010.66;6101202;23;20078;-80
2023/04/28 10:20:03;;;;;;;16.15;12.63;;;;;;;12.66;100.00;101013.91;6074891;23;20030;-83
2023/04/28 10:22:46;;;;;;;13.95;12.55;;;;;;;12.73;100.00;101007.53;6099491;23;20019;-81
2023/04/28 10:25:34;;;;;;;12.48;11.20;;;;;;;12.81;100.00;101012.09;6100298;23;20024;-82
2023/04/28 10:28:05;;;;;;;11.88;10.65;;;;;;;12.86;100.00;101024.84;6100775;23;20386;-80
2023/04/28 10:30:32;;;;;;;12.45;11.32;;;;;;;12.88;100.00;101024.41;6100997;23;20414;-79
2023/04/28 10:33:05;;;;;;;12.15;11.02;;;;;;;12.88;100.00;101025.16;6100634;23;20026;-82
2023/04/28 10:35:32;;;;;;;11.35;10.10;;;;;;;12.91;100.00;101018.19;6101015;23;20417;-81
2023/04/28 10:38:05;;;;;;;12.32;11.13;;;;;;;12.98;100.00;101021.28;6100633;23;20485;-83
2023/04/28 10:40:45;;;;;;;12.07;10.98;;;;;;;13.06;100.00;101018.31;6100459;23;20027;-84
2023/04/28 10:43:36;;;;;;;12.05;10.88;;;;;;;13.17;100.00;101007.91;6100935;23;20051;-83
2023/04/28 10:46:05;;;;;;;11.75;10.35;;;;;;;13.17;100.00;101016.69;6075232;23;20551;-83
2023/04/28 10:48:32;;;;;;;11.15;10.15;;;;;;;13.27;100.00;101017.38;6100979;23;20467;-81
2023/04/28 10:51:04;;;;;;;12.02;10.93;;;;;;;13.41;100.00;101019.41;6100415;23;20425;-82
2023/04/28 10:53:43;;;;;;;11.13;10.23;;;;;;;13.48;100.00;101019.09;6099509;23;20053;-81
2023/04/28 10:56:26;;;;;;;10.23;9.38;;;;;;;13.48;99.77;101016.41;6100030;23;20090;-80
2023/04/28 10:58:53;;;;;;;9.95;9.10;;;;;;;13.52;99.78;101014.31;6075015;23;20023;-82
2023/04/28 11:03:52;;;;;;;10.05;9.23;;;;;;;13.74;98.70;101022.06;6100886;23;20018;-79
2023/04/28 11:06:22;;;;;;;9.40;8.63;;;;;;;13.79;99.18;101012.69;6074724;23;20109;-79
2023/04/28 11:08:48;;;;;;;10.43;9.52;;;;;;;13.87;98.59;101016.50;6100239;23;20046;-78
2023/04/28 11:11:18;;;;;;;9.98;9.07;;;;;;;13.89;99.15;101011.44;6099872;23;20480;-78
2023/04/28 11:13:48;;;;;;;9.98;8.95;;;;;;;13.95;98.94;101020.34;6100723;23;20015;-79
2023/04/28 11:16:20;;;;;;;9.80;8.90;;;;;;;14.00;98.64;101012.41;6100669;23;20071;-79
2023/04/28 11:18:50;;;;;;;9.77;8.88;;;;;;;13.90;98.69;101016.34;6100819;23;20015;-79
2023/04/28 11:21:22;;;;;;;10.40;9.50;;;;;;;13.90;99.38;101012.94;6075945;23;20026;-79
2023/04/28 11:23:50;;;;;;;11.00;9.95;;;;;;;13.88;99.15;101012.63;6099645;23;20449;-79
2023/04/28 11:26:18;;;;;;;10.75;9.85;;;;;;;13.94;99.11;101011.56;6100237;23;20026;-79
2023/04/28 11:28:56;;;;;;;10.73;9.73;;;;;;;13.94;98.45;101002.78;6100787;23;20019;-78
2023/04/28 11:31:24;;;;;;;9.95;8.98;;;;;;;13.87;98.46;101011.16;6100828;23;20447;-78
2023/04/28 11:34:01;;;;;;;10.10;9.20;;;;;;;14.00;98.44;101003.63;6100682;23;20071;-78